Latest Weather Observations for Point Perpendicular

IDN60801

Issued at 11:02 am EST Saturday 5 September 2015 (issued every 30 minutes, with the page automatically refreshed every 10 minutes)

About weather observations | Map of weather stations | Latest weather observations for NSW | Other Formats
Station Details ID: 068151 Name: POINT PERPENDICULAR AWS Lat: -35.09 Lon: 150.80 Height: 85.0 m
Data from the previous 72 hours. | See also: Recent months at Point Perpendicular
Date/Time
EST
Temp
°C
App
Temp
°C
Dew
Point
Rel
Hum
%
Delta-T
°C
Wind Press
QNH
hPa
Press
MSL
hPa
Rain
since 9 am
mm
Dir
 
Spd
km/h
Gust
km/h
Spd
kts
Gust
kts
05/11:00am 14.5 11.2 11.5 82 1.6 SSW 20 26 11 14 1021.8 1021.8 -
05/10:30am 14.3 11.4 11.1 81 1.7 SSW 17 28 9 15 1022.1 1022.1 0.0
05/10:00am 14.3 11.4 10.9 80 1.8 SSW 17 26 9 14 1022.3 1022.3 0.0
05/09:30am 14.3 12.6 11.1 81 1.7 SW 11 17 6 9 1022.4 1022.4 0.0
05/09:00am 13.5 11.7 10.7 83 1.5 WSW 11 17 6 9 1022.5 1022.5 0.0
05/08:30am 12.4 10.7 10.0 85 1.2 W 9 13 5 7 1022.4 1022.4 0.0
05/08:00am 11.7 10.5 10.3 91 0.7 W 7 11 4 6 1022.2 1022.2 0.0
05/07:30am 11.0 9.7 10.1 94 0.5 WNW 7 11 4 6 1021.9 1021.9 0.0
05/07:00am 10.2 8.4 9.3 94 0.4 WNW 9 11 5 6 1021.6 1021.6 0.0
05/06:30am 10.1 8.6 9.0 93 0.5 WNW 7 9 4 5 1021.3 1021.2 0.0
05/06:00am 10.0 8.4 8.8 92 0.6 WNW 7 11 4 6 1021.1 1021.0 0.0
05/05:30am 10.8 8.9 9.2 90 0.8 WNW 9 11 5 6 1020.9 1020.8 0.0
05/05:00am 11.3 9.8 9.2 87 1.1 WNW 7 9 4 5 1020.6 1020.5 0.0
05/04:30am 11.9 10.4 9.1 83 1.4 W 7 9 4 5 1020.6 1020.5 0.0
05/04:00am 12.2 10.8 9.6 84 1.3 W 7 9 4 5 1020.5 1020.4 0.0
05/03:30am 12.2 11.0 10.3 88 1.0 W 7 9 4 5 1020.4 1020.3 0.0
05/03:00am 11.7 10.1 10.3 91 0.7 WNW 9 11 5 6 1020.4 1020.3 0.0
05/02:30am 11.4 10.1 10.0 91 0.7 WNW 7 9 4 5 1020.6 1020.5 0.0
05/02:00am 12.4 11.3 10.5 88 1.0 WNW 7 9 4 5 1021.0 1020.9 0.0
05/01:30am 12.7 11.7 10.9 89 0.9 WNW 7 9 4 5 1021.4 1021.3 0.0
05/01:00am 12.7 11.7 10.9 89 0.9 W 7 11 4 6 1021.6 1021.6 0.0
05/12:30am 12.3 10.8 10.7 90 0.8 WNW 9 9 5 5 1021.7 1021.7 0.0
05/12:00am 12.7 11.8 10.6 87 1.1 W 6 7 3 4 1021.9 1021.9 0.0
 
Date/Time
EST
Temp
°C
App
Temp
°C
Dew
Point
Rel
Hum
%
Delta-T
°C
Wind Press
QNH
hPa
Press
MSL
hPa
Rain
since 9 am
mm
Dir
 
Spd
km/h
Gust
km/h
Spd
kts
Gust
kts
04/11:30pm 13.1 11.9 10.3 83 1.5 W 7 9 4 5 1022.1 1022.1 0.0
04/11:00pm 13.3 12.4 10.8 85 1.3 WSW 6 7 3 4 1022.2 1022.2 0.0
04/10:30pm 13.2 12.2 11.1 87 1.1 SW 7 9 4 5 1022.4 1022.4 0.0
04/10:00pm 13.0 12.2 10.9 87 1.1 W 6 7 3 4 1022.4 1022.4 0.0
04/09:30pm 13.3 12.5 11.0 86 1.2 WSW 6 7 3 4 1022.3 1022.3 0.0
04/09:00pm 13.3 12.4 10.8 85 1.3 WSW 6 7 3 4 1022.2 1022.2 0.0
04/08:30pm 13.5 12.4 10.7 83 1.5 WNW 7 9 4 5 1022.3 1022.3 0.0
04/08:00pm 13.7 13.6 9.6 76 2.1 CALM 0 4 0 2 1022.1 1022.1 0.0
04/07:30pm 13.9 13.7 8.9 72 2.5 CALM 0 0 0 0 1022.0 1022.0 0.0
04/07:00pm 13.4 12.9 8.0 70 2.7 CALM 0 0 0 0 1021.7 1021.7 0.0
04/06:30pm 14.5 13.3 8.0 65 3.3 SSE 4 7 2 4 1021.5 1021.5 0.0
04/06:00pm 14.7 13.2 8.6 67 3.1 SSE 6 9 3 5 1021.3 1021.2 0.0
04/05:30pm 14.5 12.3 8.0 65 3.3 SE 9 11 5 6 1020.9 1020.8 0.0
04/05:00pm 14.6 12.5 8.3 66 3.2 SE 9 13 5 7 1020.7 1020.6 0.0
04/04:30pm 14.8 13.1 8.5 66 3.2 SE 7 11 4 6 1020.8 1020.7 0.0
04/04:00pm 15.2 12.7 8.4 64 3.4 SSE 11 17 6 9 1020.7 1020.6 0.0
04/03:30pm 15.7 13.2 8.4 62 3.7 SSE 11 17 6 9 1020.6 1020.5 0.0
04/03:00pm 15.8 13.4 8.8 63 3.6 S 11 15 6 8 1020.9 1020.8 0.0
04/02:30pm 15.6 13.1 9.7 68 3.1 S 13 22 7 12 1020.9 1020.8 0.0
04/02:00pm 15.0 12.1 9.6 70 2.8 S 15 24 8 13 1020.9 1020.8 0.0
04/01:30pm 15.0 11.6 9.1 68 3.0 S 17 26 9 14 1021.0 1020.9 0.0
04/01:00pm 14.6 10.8 9.0 69 2.9 SSW 19 26 10 14 1021.4 1021.3 0.0
04/12:30pm 14.6 10.6 9.2 70 2.8 SSW 20 28 11 15 1021.8 1021.8 0.0
04/12:00pm 14.8 10.5 9.4 70 2.8 SSW 22 32 12 17 1022.0 1022.0 0.0
04/11:30am 14.5 10.6 9.3 71 2.7 SSW 20 30 11 16 1022.1 1022.1 0.0
04/11:00am 14.4 10.1 9.2 71 2.7 SSW 22 32 12 17 1022.2 1022.2 0.0
04/10:30am 14.4 9.4 9.6 73 2.5 SSW 26 39 14 21 1022.1 1022.1 0.0
04/10:00am 14.1 9.9 9.7 75 2.3 SSW 22 33 12 18 1021.7 1021.7 0.0
04/09:30am 13.8 10.1 10.2 79 1.9 SSW 20 30 11 16 1022.1 1022.1 0.0
04/09:00am 13.6 9.9 10.0 79 1.9 SSW 20 33 11 18 1022.2 1022.2 18.2
04/08:30am 13.5 9.8 10.3 81 1.7 SSW 20 32 11 17 1021.9 1021.9 18.2
04/08:00am 13.3 9.7 10.7 84 1.4 SW 20 33 11 18 1021.7 1021.7 18.2
04/07:30am 13.2 9.2 10.6 84 1.4 SW 22 35 12 19 1021.3 1021.2 18.2
04/07:00am 13.3 9.6 10.3 82 1.6 SW 20 33 11 18 1020.7 1020.6 18.2
04/06:30am 14.8 9.5 8.5 66 3.2 SSW 26 41 14 22 1019.3 1019.2 18.2
04/06:06am 14.9 9.2 8.4 65 3.3 S 28 46 15 25 1018.9 1018.8 18.2
04/06:00am 14.9 9.3 8.6 66 3.2 S 28 44 15 24 1018.8 1018.7 18.2
04/05:41am 15.0 9.4 8.9 67 3.1 S 28 50 15 27 1018.3 1018.2 18.2
04/05:30am 14.9 9.6 8.6 66 3.2 S 26 43 14 23 1018.2 1018.1 18.2
04/05:14am 15.0 9.1 8.9 67 3.1 S 30 48 16 26 1018.2 1018.1 18.2
04/05:00am 15.1 9.1 8.6 65 3.3 S 30 43 16 23 1017.8 1017.7 18.2
04/04:30am 15.1 9.1 8.6 65 3.3 S 30 44 16 24 1017.5 1017.4 18.2
04/04:08am 15.0 9.5 9.1 68 3.0 SSW 28 46 15 25 1017.2 1017.1 18.2
04/04:00am 14.4 9.1 9.8 74 2.4 SSW 28 41 15 22 1017.4 1017.3 18.2
04/03:30am 14.0 7.8 11.5 85 1.3 SSW 35 54 19 29 1016.7 1016.6 18.2
04/03:02am 13.8 8.3 12.0 89 1.0 SSW 32 50 17 27 1016.7 1016.6 18.2
04/03:00am 13.9 8.5 12.1 89 1.0 SSW 32 46 17 25 1016.7 1016.6 18.2
04/02:30am 13.7 8.1 11.6 87 1.1 SSW 32 52 17 28 1016.5 1016.4 18.0
04/02:25am 13.9 9.2 11.9 88 1.1 SSW 28 50 15 27 1016.0 1015.9 18.0
04/02:00am 13.7 8.9 11.6 87 1.1 SSW 28 39 15 21 1016.8 1016.7 18.0
04/01:37am 15.3 10.4 11.3 77 2.1 S 28 50 15 27 1016.2 1016.1 17.6
04/01:30am 15.6 11.2 11.6 77 2.2 S 26 41 14 22 1016.0 1015.9 17.6
04/01:00am 15.7 10.7 11.1 74 2.5 S 28 48 15 26 1015.9 1015.8 17.6
04/12:56am 15.8 10.9 11.2 74 2.5 S 28 48 15 26 1015.6 1015.5 17.6
04/12:30am 15.1 11.8 12.8 86 1.3 SSW 22 39 12 21 1015.4 1015.3 17.6
04/12:00am 14.5 10.9 13.0 91 0.8 S 24 44 13 24 1015.3 1015.2 17.4
 
Date/Time
EST
Temp
°C
App
Temp
°C
Dew
Point
Rel
Hum
%
Delta-T
°C
Wind Press
QNH
hPa
Press
MSL
hPa
Rain
since 9 am
mm
Dir
 
Spd
km/h
Gust
km/h
Spd
kts
Gust
kts
03/11:30pm 13.9 10.2 12.8 93 0.6 SW 24 35 13 19 1015.3 1015.2 15.8
03/11:00pm 13.6 8.2 12.3 92 0.7 SSW 32 52 17 28 1014.8 1014.7 13.6
03/10:55pm 13.6 9.0 12.3 92 0.7 SSW 28 46 15 25 1014.7 1014.6 13.6
03/10:30pm 13.7 10.7 12.4 92 0.7 SW 20 39 11 21 1014.5 1014.4 11.2
03/10:10pm 14.1 9.5 12.3 89 1.0 SSW 28 46 15 25 1014.4 1014.3 8.4
03/10:00pm 15.1 10.7 11.7 80 1.8 SSW 26 39 14 21 1014.2 1014.1 6.8
03/09:30pm 14.7 11.7 12.4 86 1.3 SSW 20 30 11 16 1013.3 1013.2 6.8
03/09:00pm 13.0 9.2 11.1 88 1.0 SW 22 35 12 19 1013.4 1013.3 5.2
03/08:30pm 13.1 7.9 11.5 90 0.9 SW 30 44 16 24 1012.5 1012.4 5.2
03/08:00pm 13.1 8.6 11.5 90 0.9 SW 26 41 14 22 1012.4 1012.3 4.4
03/07:30pm 12.9 7.6 11.3 90 0.8 SW 30 44 16 24 1011.8 1011.7 4.4
03/07:00pm 12.9 7.6 11.1 89 1.0 SW 30 52 16 28 1011.4 1011.3 3.8
03/06:30pm 14.1 7.3 10.7 80 1.8 SSW 37 57 20 31 1009.6 1009.5 3.2
03/06:00pm 14.8 7.8 11.2 79 1.9 SSW 39 65 21 35 1008.7 1008.6 3.0
03/05:30pm 15.3 10.1 11.7 79 2.0 SSW 30 54 16 29 1007.3 1007.2 3.0
03/05:00pm 13.6 8.6 11.1 85 1.3 SSW 28 50 15 27 1007.9 1007.8 2.0
03/04:30pm 14.8 10.3 10.2 74 2.4 SW 24 39 13 21 1007.5 1007.4 0.2
03/04:00pm 14.1 10.2 10.9 81 1.7 SW 22 35 12 19 1007.3 1007.2 0.2
03/03:42pm 13.9 9.0 11.2 84 1.4 SSW 28 48 15 26 1006.7 1006.6 0.2
03/03:30pm 13.8 8.8 11.0 83 1.5 SSW 28 43 15 23 1006.8 1006.7 0.0
03/03:00pm 14.0 9.2 11.7 86 1.2 SSW 28 46 15 25 1006.5 1006.4 0.0
03/02:33pm 14.4 9.0 10.8 79 1.9 SSW 30 48 16 26 1005.8 1005.7 0.0
03/02:30pm 14.5 8.8 11.1 80 1.8 SSW 32 48 17 26 1005.7 1005.6 0.0
03/02:00pm 14.8 9.4 11.0 78 2.0 SSW 30 48 16 26 1004.9 1004.8 0.0
03/01:50pm 15.2 10.3 11.2 77 2.1 SSW 28 46 15 25 1004.7 1004.6 0.0
03/01:30pm 15.0 10.1 11.2 78 2.0 SSW 28 41 15 22 1004.8 1004.7 0.0
03/01:00pm 15.1 11.2 10.9 76 2.2 SSW 22 32 12 17 1004.6 1004.5 0.0
03/12:30pm 17.0 12.8 8.2 56 4.5 SW 20 28 11 15 1005.2 1005.1 0.0
03/12:00pm 16.7 12.5 7.4 54 4.7 WSW 19 26 10 14 1005.2 1005.1 0.0
03/11:30am 16.2 11.3 8.4 60 4.0 WSW 24 33 13 18 1005.2 1005.1 0.0
03/11:00am 15.6 12.5 10.2 70 2.9 W 17 28 9 15 1005.5 1005.4 0.0
03/10:30am 15.0 12.3 10.4 74 2.4 W 15 24 8 13 1005.6 1005.5 0.0
03/10:00am 14.5 11.3 10.1 75 2.3 W 17 28 9 15 1005.7 1005.6 0.0
03/09:30am 14.5 11.3 9.9 74 2.4 WNW 17 24 9 13 1005.9 1005.8 0.0
03/09:00am 13.6 10.9 10.4 81 1.7 WNW 15 20 8 11 1005.9 1005.8 6.4
03/08:30am 13.3 11.1 10.8 85 1.3 WNW 13 17 7 9 1005.6 1005.5 6.4
03/08:00am 12.5 10.3 10.9 90 0.8 WNW 13 17 7 9 1005.4 1005.3 6.4
03/07:30am 12.2 10.4 10.9 92 0.7 WNW 11 15 6 8 1005.2 1005.1 6.4
03/07:00am 11.8 10.3 10.7 93 0.6 WNW 9 11 5 6 1004.8 1004.7 6.4
03/06:30am 11.9 10.5 10.8 93 0.6 WNW 9 11 5 6 1004.6 1004.5 6.4
03/06:00am 11.8 10.3 10.7 93 0.6 WNW 9 11 5 6 1004.6 1004.5 6.4
03/05:30am 11.9 10.1 11.0 94 0.5 WNW 11 13 6 7 1004.8 1004.7 6.4
03/05:00am 11.7 10.3 10.8 94 0.5 NW 9 11 5 6 1004.6 1004.5 6.4
03/04:30am 11.8 9.6 10.9 94 0.5 N 13 20 7 11 1004.8 1004.7 6.4
03/04:00am 11.9 9.8 11.0 94 0.5 N 13 22 7 12 1005.3 1005.2 6.4
03/03:30am 11.8 8.9 10.9 94 0.5 NNE 17 22 9 12 1005.0 1004.9 6.4
03/03:00am 11.7 8.8 10.9 95 0.4 NE 17 28 9 15 1005.1 1005.0 6.4
03/02:30am 11.3 8.6 10.4 94 0.5 NE 15 22 8 12 1005.8 1005.7 6.0
03/02:00am 10.8 9.1 9.7 93 0.6 NNE 9 15 5 8 1007.4 1007.3 5.2
03/01:30am 11.0 9.2 9.4 90 0.8 NNW 9 17 5 9 1008.6 1008.5 4.4
03/01:00am 11.6 9.7 9.0 84 1.3 WNW 9 11 5 6 1008.5 1008.4 2.0
03/12:30am 12.6 10.3 9.1 79 1.8 NW 11 13 6 7 1008.8 1008.7 0.2
03/12:00am 14.1 11.8 10.5 79 1.9 NNW 13 22 7 12 1008.7 1008.6 0.2
 
Date/Time
EST
Temp
°C
App
Temp
°C
Dew
Point
Rel
Hum
%
Delta-T
°C
Wind Press
QNH
hPa
Press
MSL
hPa
Rain
since 9 am
mm
Dir
 
Spd
km/h
Gust
km/h
Spd
kts
Gust
kts
02/11:30pm 15.1 12.6 11.1 77 2.1 N 15 22 8 12 1007.9 1007.8 0.0
02/11:00pm 15.1 12.2 10.9 76 2.2 N 17 22 9 12 1008.0 1007.9 0.0
02/10:30pm 15.2 11.8 10.6 74 2.4 N 19 28 10 15 1008.0 1007.9 0.0
02/10:00pm 15.2 11.2 10.4 73 2.5 NNE 22 30 12 16 1008.2 1008.1 0.0
02/09:30pm 15.4 12.5 11.0 75 2.4 NNE 17 24 9 13 1009.4 1009.3 0.0
02/09:00pm 15.4 11.4 10.6 73 2.6 NNE 22 28 12 15 1009.4 1009.3 0.0
02/08:30pm 15.4 11.1 10.8 74 2.4 NNE 24 39 13 21 1009.9 1009.8 0.0
02/08:00pm 14.9 11.6 9.7 71 2.7 NNE 17 24 9 13 1010.1 1010.0 0.0
02/07:30pm 15.0 10.5 8.7 66 3.2 N 22 33 12 18 1010.2 1010.1 0.0
02/07:00pm 15.0 10.3 9.1 68 3.0 NNE 24 32 13 17 1010.1 1010.0 0.0
02/06:30pm 14.7 10.4 9.3 70 2.8 NNE 22 32 12 17 1010.4 1010.3 0.0
02/06:00pm 14.8 10.5 9.4 70 2.8 NNE 22 32 12 17 1010.3 1010.2 0.0
02/05:30pm 15.1 10.2 8.6 65 3.3 NNE 24 35 13 19 1010.5 1010.4 0.0
02/05:00pm 15.9 11.0 8.6 62 3.7 NNE 24 33 13 18 1010.7 1010.6 0.0
02/04:30pm 15.9 10.2 8.4 61 3.8 NNE 28 41 15 22 1010.9 1010.8 0.0
02/04:00pm 16.8 11.3 9.0 60 4.0 NNE 28 41 15 22 1011.0 1010.9 0.0
02/03:30pm 17.2 11.6 8.9 58 4.3 NNE 28 43 15 23 1011.2 1011.0 0.0
02/03:00pm 17.2 11.4 9.6 61 4.0 NNE 30 41 16 22 1011.3 1011.1 0.0
02/02:30pm 17.5 11.6 8.9 57 4.5 NNE 30 43 16 23 1011.7 1011.6 0.0
02/02:00pm 18.2 12.3 7.6 50 5.4 NNE 28 39 15 21 1012.0 1011.9 0.0
02/01:30pm 18.6 12.3 5.5 42 6.4 NNE 28 35 15 19 1012.5 1012.4 0.0
02/01:00pm 18.2 12.0 4.4 40 6.6 NE 26 39 14 21 1013.2 1013.1 0.0
02/12:30pm 17.9 13.4 4.1 40 6.5 N 17 26 9 14 1013.9 1013.8 0.0
02/12:00pm 17.2 13.0 5.5 46 5.7 NNE 17 24 9 13 1014.6 1014.5 0.0
02/11:30am 16.9 12.4 4.3 43 5.9 N 17 24 9 13 1015.1 1015.0 0.0

Other Formats:

Comma delimited format used in spreadsheet applications
http://www.bom.gov.au/fwo/IDN60801/IDN60801.95940.axf

JavaScript Object Notation format (JSON) in row-major order
http://www.bom.gov.au/fwo/IDN60801/IDN60801.95940.json